createdAt,value
2023-04-16T00:03:40.957Z,73.06
2023-04-16T00:07:09.012Z,73.00
2023-04-16T00:10:35.780Z,73.20
2023-04-16T00:14:02.847Z,73.12
2023-04-16T00:17:29.660Z,73.26
2023-04-16T00:20:56.685Z,73.37
2023-04-16T00:24:24.239Z,73.33
2023-04-16T00:27:51.131Z,73.34
2023-04-16T00:31:18.262Z,73.26
2023-04-16T00:34:45.019Z,73.30
2023-04-16T00:38:14.823Z,73.42
2023-04-16T00:41:42.710Z,73.40
2023-04-16T00:45:13.912Z,73.39
2023-04-16T00:48:42.132Z,73.17
2023-04-16T00:52:09.423Z,73.06
2023-04-16T00:55:37.332Z,73.16
2023-04-16T00:59:04.746Z,73.14
2023-04-16T01:02:32.964Z,73.07
2023-04-16T01:06:00.741Z,72.94
2023-04-16T01:09:27.695Z,73.12
2023-04-16T01:12:54.504Z,73.08
2023-04-16T01:16:22.584Z,73.18
2023-04-16T01:19:50.011Z,73.38
2023-04-16T01:23:18.826Z,73.52
2023-04-16T01:26:46.117Z,73.34
2023-04-16T01:30:14.308Z,73.41
2023-04-16T01:33:59.342Z,73.47
2023-04-16T01:37:26.089Z,73.50
2023-04-16T01:40:59.765Z,73.51
2023-04-16T01:44:26.764Z,73.55
2023-04-16T01:47:53.944Z,73.67
2023-04-16T01:51:20.499Z,73.60
2023-04-16T01:54:48.607Z,73.50
2023-04-16T01:58:15.621Z,73.59
2023-04-16T02:01:44.505Z,73.41
2023-04-16T02:05:12.120Z,73.28
2023-04-16T02:08:40.147Z,73.44
2023-04-16T02:12:07.596Z,73.22
2023-04-16T02:15:35.111Z,73.33
2023-04-16T02:19:02.607Z,73.32
2023-04-16T02:22:30.596Z,73.48
2023-04-16T02:25:58.318Z,73.39
2023-04-16T02:29:25.710Z,73.41
2023-04-16T02:32:57.437Z,73.58
2023-04-16T02:36:24.767Z,73.56
2023-04-16T02:39:53.191Z,73.56
2023-04-16T02:43:20.196Z,73.67
2023-04-16T02:46:47.666Z,73.66
2023-04-16T02:50:15.187Z,73.86
2023-04-16T02:53:45.750Z,73.77
2023-04-16T02:57:12.985Z,73.65
2023-04-16T03:00:43.917Z,73.58
2023-04-16T03:04:10.869Z,73.50
2023-04-16T03:07:39.566Z,73.56
2023-04-16T03:11:07.774Z,73.44
2023-04-16T03:14:34.826Z,73.39
2023-04-16T03:18:02.689Z,73.49
2023-04-16T03:21:29.426Z,73.31
2023-04-16T03:24:58.918Z,73.36
2023-04-16T03:28:26.159Z,73.40
2023-04-16T03:31:53.443Z,73.52
2023-04-16T03:35:21.925Z,73.66
2023-04-16T03:38:48.945Z,73.47
2023-04-16T03:42:19.285Z,73.53
2023-04-16T03:45:48.784Z,73.66
2023-04-16T03:49:16.952Z,73.75
2023-04-16T03:52:45.031Z,73.73
2023-04-16T03:56:12.283Z,73.78
2023-04-16T03:59:39.178Z,73.87
2023-04-16T04:03:06.416Z,73.95
2023-04-16T04:06:34.181Z,73.84
2023-04-16T04:10:01.532Z,73.79
2023-04-16T04:13:29.037Z,73.55
2023-04-16T04:17:00.129Z,73.50
2023-04-16T04:20:27.471Z,73.67
2023-04-16T04:23:55.634Z,73.59
2023-04-16T04:27:23.448Z,73.72
2023-04-16T04:30:51.118Z,74.03
2023-04-16T04:34:19.409Z,74.06
2023-04-16T04:37:46.224Z,73.97
2023-04-16T04:41:15.987Z,73.76
2023-04-16T04:44:43.212Z,73.97
2023-04-16T04:48:10.842Z,74.11
2023-04-16T04:51:38.473Z,73.98
2023-04-16T04:55:05.992Z,74.20
2023-04-16T04:58:36.495Z,74.09
2023-04-16T05:02:03.899Z,74.26
2023-04-16T05:05:31.146Z,74.25
2023-04-16T05:08:57.989Z,74.02
2023-04-16T05:12:25.055Z,74.08
2023-04-16T05:15:51.859Z,73.86
2023-04-16T05:19:19.463Z,73.94
2023-04-16T05:22:45.962Z,73.90
2023-04-16T05:26:12.292Z,73.94
2023-04-16T05:29:39.045Z,73.91
2023-04-16T05:33:05.597Z,73.97
2023-04-16T05:36:55.059Z,73.87
2023-04-16T05:40:31.121Z,74.26
2023-04-16T05:44:08.552Z,74.36
2023-04-16T05:47:41.017Z,74.26
2023-04-16T05:51:20.768Z,74.16
2023-04-16T05:54:50.701Z,74.38
2023-04-16T05:58:18.620Z,74.24
2023-04-16T06:01:48.362Z,74.25
2023-04-16T06:05:16.084Z,74.18
2023-04-16T06:08:46.288Z,74.46
2023-04-16T06:12:17.934Z,74.21
2023-04-16T06:15:44.993Z,74.17
2023-04-16T06:19:13.246Z,74.23
2023-04-16T06:22:41.239Z,74.20
2023-04-16T06:26:08.662Z,74.26
2023-04-16T06:29:41.222Z,74.07
2023-04-16T06:33:09.028Z,74.25
2023-04-16T06:36:37.930Z,74.07
2023-04-16T06:40:05.062Z,73.99
2023-04-16T06:43:33.800Z,74.05
2023-04-16T06:47:01.147Z,74.01
2023-04-16T06:50:29.315Z,74.23
2023-04-16T06:53:55.910Z,74.42
2023-04-16T06:57:22.681Z,74.34
2023-04-16T07:00:49.107Z,74.34
2023-04-16T07:04:16.728Z,74.33
2023-04-16T07:07:44.086Z,74.44
2023-04-16T07:11:11.025Z,74.43
2023-04-16T07:14:37.939Z,74.40
2023-04-16T07:18:04.701Z,74.40
2023-04-16T07:21:31.998Z,74.42
2023-04-16T07:24:58.701Z,74.30
2023-04-16T07:28:25.583Z,74.10
2023-04-16T07:31:52.974Z,74.07
2023-04-16T07:35:19.861Z,74.03
2023-04-16T07:38:46.326Z,74.14
2023-04-16T07:42:13.132Z,74.01
2023-04-16T07:45:41.356Z,73.93
2023-04-16T07:49:08.676Z,73.98
2023-04-16T07:52:35.485Z,74.15
2023-04-16T07:56:02.176Z,74.02
2023-04-16T07:59:30.143Z,74.00
2023-04-16T08:02:57.941Z,74.17
2023-04-16T08:06:25.314Z,74.13
2023-04-16T08:09:53.946Z,74.36
2023-04-16T08:13:21.196Z,74.42
2023-04-16T08:16:47.858Z,74.28
2023-04-16T08:20:17.598Z,74.31
2023-04-16T08:23:46.126Z,74.26
2023-04-16T08:27:19.393Z,74.32
2023-04-16T08:30:46.038Z,74.31
2023-04-16T08:34:12.830Z,74.27
2023-04-16T08:37:40.051Z,74.33
2023-04-16T08:41:10.987Z,74.11
2023-04-16T08:44:45.976Z,74.02
2023-04-16T08:48:14.939Z,74.03
2023-04-16T08:51:44.790Z,74.21
2023-04-16T08:55:15.587Z,74.22
2023-04-16T08:58:42.904Z,74.17
2023-04-16T09:02:13.209Z,74.27
2023-04-16T09:05:40.868Z,74.39
2023-04-16T09:09:10.566Z,74.31
2023-04-16T09:12:39.004Z,74.29
2023-04-16T09:16:05.851Z,74.42
2023-04-16T09:19:32.692Z,74.47
2023-04-16T09:22:59.434Z,74.48
2023-04-16T09:26:27.559Z,74.47
2023-04-16T09:29:54.093Z,74.45
2023-04-16T09:33:23.520Z,74.53
2023-04-16T09:36:50.745Z,74.34
2023-04-16T09:40:27.987Z,74.29
2023-04-16T09:44:00.530Z,74.16
2023-04-16T09:47:28.448Z,74.14
2023-04-16T09:50:55.076Z,74.31
2023-04-16T09:54:22.796Z,74.10
2023-04-16T09:57:50.021Z,74.00
2023-04-16T10:01:21.031Z,74.02
2023-04-16T10:04:56.698Z,74.11
2023-04-16T10:08:25.719Z,74.19
2023-04-16T10:11:52.819Z,74.23
2023-04-16T10:15:20.043Z,74.25
2023-04-16T10:18:48.360Z,74.42
2023-04-16T10:22:15.577Z,74.27
2023-04-16T10:25:45.226Z,74.25
2023-04-16T10:29:13.265Z,74.03
2023-04-16T10:32:42.191Z,74.19
2023-04-16T10:36:15.581Z,74.17
2023-04-16T10:39:42.269Z,74.07
2023-04-16T10:43:10.143Z,73.93
2023-04-16T10:46:42.044Z,74.05
2023-04-16T10:50:18.808Z,73.78
2023-04-16T10:53:45.687Z,73.73
2023-04-16T10:57:18.090Z,73.74
2023-04-16T11:00:54.241Z,73.55
2023-04-16T11:04:37.631Z,73.45
2023-04-16T11:08:16.916Z,73.19
2023-04-16T11:11:44.730Z,73.39
2023-04-16T11:15:13.914Z,73.45
2023-04-16T11:18:51.031Z,73.50
2023-04-16T11:22:20.433Z,73.41
2023-04-16T11:25:48.245Z,72.98
2023-04-16T11:29:18.551Z,73.02
2023-04-16T11:32:47.438Z,72.97
2023-04-16T11:36:14.478Z,72.78
2023-04-16T11:39:53.273Z,72.79
2023-04-16T11:43:24.779Z,72.77
2023-04-16T11:46:58.549Z,72.63
2023-04-16T11:50:26.494Z,72.70
2023-04-16T11:53:55.175Z,72.32
2023-04-16T11:57:29.942Z,72.43
2023-04-16T12:01:05.193Z,72.53
2023-04-16T12:04:37.592Z,72.46
2023-04-16T12:08:07.269Z,72.51
2023-04-16T12:11:44.890Z,72.67
2023-04-16T12:15:13.370Z,72.61
2023-04-16T12:19:00.106Z,72.71
2023-04-16T12:22:34.696Z,72.49
2023-04-16T12:26:12.543Z,72.49
2023-04-16T12:29:39.708Z,72.69
2023-04-16T12:33:24.260Z,72.69
2023-04-16T12:37:04.791Z,72.41
2023-04-16T12:40:31.647Z,72.66
2023-04-16T12:44:09.195Z,72.45
2023-04-16T12:47:38.557Z,72.40
2023-04-16T12:51:05.501Z,72.36
2023-04-16T12:54:32.776Z,72.23
2023-04-16T12:57:59.818Z,72.24
2023-04-16T13:01:27.153Z,72.21
2023-04-16T13:04:54.789Z,72.27
2023-04-16T13:08:22.973Z,72.42
2023-04-16T13:11:49.533Z,72.46
2023-04-16T13:15:16.653Z,72.35
2023-04-16T13:18:44.100Z,72.23
2023-04-16T13:22:11.598Z,72.17
2023-04-16T13:25:39.101Z,72.23
2023-04-16T13:29:05.903Z,72.17
2023-04-16T13:32:33.009Z,71.99
2023-04-16T13:36:01.440Z,71.94
2023-04-16T13:39:28.895Z,71.96
2023-04-16T13:42:58.425Z,71.81
2023-04-16T13:46:26.760Z,71.97
2023-04-16T13:49:54.911Z,71.87
2023-04-16T13:53:22.363Z,71.88
2023-04-16T13:56:51.547Z,71.72
2023-04-16T14:00:20.612Z,71.94
2023-04-16T14:03:47.573Z,71.90
2023-04-16T14:07:23.024Z,71.83
2023-04-16T14:10:56.388Z,72.04
2023-04-16T14:14:24.690Z,72.02
2023-04-16T14:17:55.181Z,72.10
2023-04-16T14:21:22.399Z,72.00
2023-04-16T14:24:50.405Z,71.85
2023-04-16T14:28:17.757Z,71.90
2023-04-16T14:31:50.588Z,71.88
2023-04-16T14:35:18.174Z,71.90
2023-04-16T14:38:54.141Z,71.73
2023-04-16T14:42:22.892Z,71.75
2023-04-16T14:45:51.345Z,71.71
2023-04-16T14:49:18.238Z,71.67
2023-04-16T14:52:45.275Z,71.68
2023-04-16T14:56:13.143Z,71.66
2023-04-16T14:59:40.046Z,71.66
2023-04-16T15:03:07.213Z,71.83
2023-04-16T15:06:36.005Z,71.63
2023-04-16T15:10:03.186Z,71.68
2023-04-16T15:13:34.117Z,71.78
2023-04-16T15:17:01.190Z,71.83
2023-04-16T15:20:27.930Z,71.83
2023-04-16T15:23:55.521Z,71.54
2023-04-16T15:27:22.453Z,71.67
2023-04-16T15:30:49.001Z,71.60
2023-04-16T15:34:16.385Z,71.57
2023-04-16T15:37:44.469Z,71.57
2023-04-16T15:41:12.170Z,71.57
2023-04-16T15:44:42.226Z,71.51
2023-04-16T15:48:13.075Z,71.47
2023-04-16T15:51:39.955Z,71.45
2023-04-16T15:55:10.897Z,71.33
2023-04-16T15:58:38.975Z,71.30
2023-04-16T16:02:06.388Z,71.31
2023-04-16T16:05:33.175Z,71.40
2023-04-16T16:08:59.938Z,71.51
2023-04-16T16:12:27.549Z,71.46
2023-04-16T16:15:55.343Z,71.52
2023-04-16T16:19:22.335Z,71.48
2023-04-16T16:22:53.192Z,71.51
2023-04-16T16:26:23.163Z,71.59
2023-04-16T16:29:50.987Z,71.47
2023-04-16T16:33:18.929Z,71.57
2023-04-16T16:36:47.033Z,71.45
2023-04-16T16:40:14.497Z,71.48
2023-04-16T16:43:41.237Z,71.50
2023-04-16T16:47:09.136Z,71.47
2023-04-16T16:50:36.414Z,71.40
2023-04-16T16:54:05.231Z,71.35
2023-04-16T16:57:32.296Z,71.37
2023-04-16T17:00:59.807Z,71.38
2023-04-16T17:04:26.659Z,71.47
2023-04-16T17:07:53.652Z,71.60
2023-04-16T17:11:20.301Z,71.56
2023-04-16T17:14:51.168Z,71.59
2023-04-16T17:18:21.763Z,71.62
2023-04-16T17:21:49.338Z,71.69
2023-04-16T17:25:16.959Z,71.67
2023-04-16T17:28:44.086Z,71.65
2023-04-16T17:32:12.010Z,71.54
2023-04-16T17:35:41.378Z,71.60
2023-04-16T17:39:10.558Z,71.57
2023-04-16T17:42:41.508Z,71.33
2023-04-16T17:46:15.324Z,71.37
2023-04-16T17:49:48.220Z,71.35
2023-04-16T17:53:16.364Z,71.29
2023-04-16T17:56:46.304Z,71.25
2023-04-16T18:00:14.987Z,71.18
2023-04-16T18:03:48.439Z,71.19
2023-04-16T18:07:16.109Z,71.22
2023-04-16T18:10:43.939Z,71.22
2023-04-16T18:14:14.346Z,71.37
2023-04-16T18:17:43.326Z,71.28
2023-04-16T18:21:14.896Z,71.39
2023-04-16T18:24:43.647Z,71.30
2023-04-16T18:28:14.044Z,71.36
2023-04-16T18:31:43.046Z,71.18
2023-04-16T18:35:11.900Z,71.13
2023-04-16T18:38:52.982Z,71.19
2023-04-16T18:42:29.912Z,71.19
2023-04-16T18:45:56.968Z,71.23
2023-04-16T18:49:23.813Z,71.13
2023-04-16T18:52:52.014Z,71.15
2023-04-16T18:56:26.134Z,71.22
2023-04-16T18:59:54.673Z,71.15
2023-04-16T19:03:22.891Z,71.32
2023-04-16T19:06:50.247Z,71.39
2023-04-16T19:10:19.073Z,71.38
2023-04-16T19:13:48.564Z,71.52
2023-04-16T19:17:19.687Z,71.22
2023-04-16T19:20:46.663Z,71.18
2023-04-16T19:24:15.144Z,71.33
2023-04-16T19:27:42.137Z,71.28
2023-04-16T19:31:09.990Z,71.37
2023-04-16T19:34:36.723Z,71.23
2023-04-16T19:38:04.068Z,71.19
2023-04-16T19:41:33.295Z,71.20
2023-04-16T19:45:10.286Z,71.20
2023-04-16T19:48:37.392Z,71.11
2023-04-16T19:52:05.931Z,71.00
2023-04-16T19:55:33.142Z,71.25
2023-04-16T19:59:01.006Z,71.17
2023-04-16T20:02:30.157Z,71.08
2023-04-16T20:05:57.245Z,71.20
2023-04-16T20:09:26.751Z,71.34
2023-04-16T20:12:54.413Z,71.64
2023-04-16T20:16:26.232Z,71.37
2023-04-16T20:19:53.456Z,71.35
2023-04-16T20:23:33.191Z,71.31
2023-04-16T20:27:02.311Z,71.44
2023-04-16T20:30:31.176Z,71.41
2023-04-16T20:33:59.157Z,71.39
2023-04-16T20:37:26.741Z,71.30
2023-04-16T20:41:06.524Z,71.19
2023-04-16T20:44:41.291Z,71.14
2023-04-16T20:48:08.927Z,71.25
2023-04-16T20:51:38.420Z,71.42
2023-04-16T20:55:06.114Z,71.12
2023-04-16T20:58:33.736Z,71.22
2023-04-16T21:02:02.055Z,71.05
2023-04-16T21:05:30.408Z,70.88
2023-04-16T21:08:57.813Z,71.13
2023-04-16T21:12:26.360Z,71.07
2023-04-16T21:15:53.743Z,70.97
2023-04-16T21:19:26.628Z,71.16
2023-04-16T21:22:56.961Z,70.95
2023-04-16T21:26:25.796Z,71.08
2023-04-16T21:29:53.988Z,70.94
2023-04-16T21:33:23.301Z,71.00
2023-04-16T21:36:51.350Z,70.81
2023-04-16T21:40:19.551Z,70.71
2023-04-16T21:43:47.381Z,70.65
2023-04-16T21:47:14.693Z,70.90
2023-04-16T21:50:41.919Z,70.60
2023-04-16T21:54:09.026Z,70.72
2023-04-16T21:57:36.388Z,70.86
2023-04-16T22:01:03.396Z,70.57
2023-04-16T22:04:37.223Z,70.64
2023-04-16T22:08:13.768Z,70.75
2023-04-16T22:11:48.390Z,70.92
2023-04-16T22:15:15.730Z,70.77
2023-04-16T22:18:42.943Z,70.75
2023-04-16T22:22:13.501Z,70.98
2023-04-16T22:25:40.886Z,70.57
2023-04-16T22:29:07.869Z,70.57
2023-04-16T22:32:34.531Z,70.73
2023-04-16T22:36:02.376Z,70.99
2023-04-16T22:39:29.895Z,70.71
2023-04-16T22:42:56.595Z,70.91
2023-04-16T22:46:24.989Z,70.73
2023-04-16T22:49:51.530Z,70.60
2023-04-16T22:53:18.459Z,70.62
2023-04-16T22:56:47.119Z,70.85
2023-04-16T23:00:18.196Z,70.65
2023-04-16T23:03:45.487Z,70.67
2023-04-16T23:07:12.228Z,70.73
2023-04-16T23:10:39.033Z,70.77
2023-04-16T23:14:06.338Z,71.12
2023-04-16T23:17:33.876Z,70.70
2023-04-16T23:21:01.005Z,70.98
2023-04-16T23:24:28.197Z,71.17
2023-04-16T23:27:55.255Z,70.88
2023-04-16T23:31:21.731Z,70.82
2023-04-16T23:34:48.363Z,70.99
2023-04-16T23:38:14.865Z,70.96
2023-04-16T23:41:42.229Z,70.65
2023-04-16T23:45:11.261Z,70.61
2023-04-16T23:48:38.056Z,70.86
2023-04-16T23:52:04.813Z,70.88
2023-04-16T23:55:31.531Z,70.90
2023-04-16T23:58:58.200Z,71.03
